Emmonak, Alaska
Current Conditions -  °F | °C
As of 10:16 PM on Sunday 25 Jan 2015 (Local Time) from PAEM Reporting Station
Clear Clear  
Wind Chill: -31°   Ceiling: Unl
Heat Index: -31°   Visibility: 10mi
Dew Point: -33°   Wind: 0mph
Humidity: 83%   Direction: NA
Pressure: 30.18"   Gusts: NA
Location:  62.78°N, 164.53°W
Report Text: PAEM 260716Z AUTO 00000KT 10SM CLR M31/M33 A3018 RMK AO1
Loading
Personal Weather Stations






























Interactive Weather Map New forecast layout! Learn more

10-Day Weather Forecast

Advertisements
Track Severe Weather on mobile